createdAt,value
2023-05-19T04:00:28.831Z,151.00
2023-05-19T04:00:34.469Z,151.00
2023-05-19T04:00:39.979Z,151.00
2023-05-19T04:00:45.164Z,150.00
2023-05-19T04:00:50.392Z,152.00
2023-05-19T04:00:55.608Z,151.00
2023-05-19T04:01:31.618Z,160.00
2023-05-19T04:01:36.842Z,162.00
2023-05-19T04:01:42.076Z,162.00
2023-05-19T04:01:47.271Z,160.00
2023-05-19T04:01:52.566Z,160.00
2023-05-19T04:01:57.928Z,163.00
2023-05-19T04:02:34.157Z,162.00
2023-05-19T04:02:39.377Z,167.00
2023-05-19T04:02:44.740Z,167.00
2023-05-19T04:02:50.081Z,171.00
2023-05-19T04:02:55.373Z,176.00
2023-05-19T04:03:00.763Z,172.00
2023-05-19T04:03:36.916Z,177.00
2023-05-19T04:03:42.200Z,179.00
2023-05-19T04:03:47.438Z,186.00
2023-05-19T04:03:52.612Z,180.00
2023-05-19T04:03:57.852Z,181.00
2023-05-19T04:04:03.071Z,181.00
2023-05-19T04:04:39.162Z,189.00
2023-05-19T04:04:44.407Z,182.00
2023-05-19T04:04:49.742Z,187.00
2023-05-19T04:04:55.098Z,189.00
2023-05-19T04:05:00.397Z,190.00
2023-05-19T04:05:05.604Z,193.00
2023-05-19T04:05:41.576Z,195.00
2023-05-19T04:05:46.770Z,199.00
2023-05-19T04:05:52.042Z,203.00
2023-05-19T04:05:57.235Z,205.00
2023-05-19T04:06:02.446Z,201.00
2023-05-19T04:06:07.632Z,201.00
2023-05-19T04:06:43.800Z,209.00
2023-05-19T04:06:49.019Z,207.00
2023-05-19T04:06:54.224Z,210.00
2023-05-19T04:06:59.427Z,212.00
2023-05-19T04:07:04.661Z,213.00
2023-05-19T04:07:09.859Z,214.00
2023-05-19T04:07:45.866Z,217.00
2023-05-19T04:07:51.083Z,221.00
2023-05-19T04:07:56.281Z,227.00
2023-05-19T04:08:01.485Z,224.00
2023-05-19T04:08:06.682Z,222.00
2023-05-19T04:08:11.890Z,225.00
2023-05-19T04:08:47.875Z,227.00
2023-05-19T04:08:53.074Z,229.00
2023-05-19T04:08:58.285Z,232.00
2023-05-19T04:09:03.491Z,234.00
2023-05-19T04:09:08.708Z,233.00
2023-05-19T04:09:13.918Z,234.00
2023-05-19T04:09:49.950Z,249.00
2023-05-19T04:09:55.143Z,244.00
2023-05-19T04:10:00.366Z,240.00
2023-05-19T04:10:05.574Z,243.00
2023-05-19T04:10:10.786Z,245.00
2023-05-19T04:10:16.008Z,245.00
2023-05-19T04:10:52.003Z,254.00
2023-05-19T04:10:57.192Z,257.00
2023-05-19T04:11:02.407Z,255.00
2023-05-19T04:11:07.596Z,255.00
2023-05-19T04:11:12.818Z,255.00
2023-05-19T04:11:18.029Z,262.00
2023-05-19T04:11:53.976Z,267.00
2023-05-19T04:11:59.185Z,269.00
2023-05-19T04:12:04.392Z,266.00
2023-05-19T04:12:09.604Z,269.00
2023-05-19T04:12:14.835Z,269.00
2023-05-19T04:12:20.066Z,269.00
2023-05-19T04:12:56.077Z,278.00
2023-05-19T04:13:01.270Z,282.00
2023-05-19T04:13:06.466Z,280.00
2023-05-19T04:13:11.697Z,285.00
2023-05-19T04:13:16.899Z,286.00
2023-05-19T04:13:22.100Z,285.00
2023-05-19T04:13:58.106Z,291.00
2023-05-19T04:14:03.320Z,294.00
2023-05-19T04:14:08.528Z,294.00
2023-05-19T04:14:13.736Z,298.00
2023-05-19T04:14:18.947Z,296.00
2023-05-19T04:14:24.170Z,295.00
2023-05-19T04:15:00.240Z,306.00
2023-05-19T04:15:05.461Z,310.00
2023-05-19T04:15:10.688Z,312.00
2023-05-19T04:15:15.887Z,309.00
2023-05-19T04:15:21.106Z,313.00
2023-05-19T04:15:26.306Z,314.00
2023-05-19T04:16:02.304Z,320.00
2023-05-19T04:16:07.535Z,323.00
2023-05-19T04:16:12.799Z,326.00
2023-05-19T04:16:18.107Z,325.00
2023-05-19T04:16:23.406Z,328.00
2023-05-19T04:16:28.882Z,326.00
2023-05-19T04:17:05.099Z,337.00
2023-05-19T04:17:10.322Z,338.00
2023-05-19T04:17:15.531Z,342.00
2023-05-19T04:17:20.732Z,340.00
2023-05-19T04:17:25.970Z,342.00
2023-05-19T04:17:31.197Z,343.00
2023-05-19T04:18:07.185Z,353.00
2023-05-19T04:18:12.488Z,356.00
2023-05-19T04:18:17.662Z,351.00
2023-05-19T04:18:22.861Z,355.00
2023-05-19T04:18:29.204Z,357.00
2023-05-19T04:18:34.651Z,358.00
2023-05-19T04:19:10.796Z,367.00
2023-05-19T04:19:16.026Z,371.00
2023-05-19T04:19:21.619Z,375.00
2023-05-19T04:19:26.947Z,379.00
2023-05-19T04:19:32.226Z,375.00
2023-05-19T04:19:37.446Z,377.00
2023-05-19T04:20:13.480Z,382.00
2023-05-19T04:20:18.705Z,386.00
2023-05-19T04:20:23.896Z,388.00
2023-05-19T04:20:29.131Z,388.00
2023-05-19T04:20:34.536Z,391.00
2023-05-19T04:20:39.875Z,390.00
2023-05-19T04:21:15.918Z,403.00
2023-05-19T04:21:21.114Z,405.00
2023-05-19T04:21:26.311Z,406.00
2023-05-19T04:21:31.518Z,404.00
2023-05-19T04:21:36.739Z,410.00
2023-05-19T04:21:41.955Z,413.00
2023-05-19T04:22:18.062Z,420.00
2023-05-19T04:22:23.265Z,424.00
2023-05-19T04:22:28.479Z,422.00
2023-05-19T04:22:33.697Z,421.00
2023-05-19T04:22:38.911Z,424.00
2023-05-19T04:22:44.127Z,425.00
2023-05-19T04:23:20.132Z,436.00
2023-05-19T04:23:25.334Z,445.00
2023-05-19T04:23:30.520Z,441.00
2023-05-19T04:23:35.731Z,443.00
2023-05-19T04:23:40.912Z,444.00
2023-05-19T04:23:46.101Z,444.00
2023-05-19T04:24:22.185Z,455.00
2023-05-19T04:24:27.377Z,451.00
2023-05-19T04:24:32.563Z,452.00
2023-05-19T04:24:37.772Z,460.00
2023-05-19T04:24:42.987Z,462.00
2023-05-19T04:24:48.182Z,462.00
2023-05-19T04:25:24.185Z,474.00
2023-05-19T04:25:29.405Z,474.00
2023-05-19T04:25:34.598Z,478.00
2023-05-19T04:25:39.795Z,483.00
2023-05-19T04:25:44.989Z,480.00
2023-05-19T04:25:50.190Z,478.00
2023-05-19T04:26:26.237Z,493.00
2023-05-19T04:26:31.445Z,493.00
2023-05-19T04:26:36.655Z,497.00
2023-05-19T04:26:42.602Z,499.00
2023-05-19T04:26:47.802Z,501.00
2023-05-19T04:26:52.998Z,504.00
2023-05-19T04:27:29.069Z,515.00
2023-05-19T04:27:34.233Z,513.00
2023-05-19T04:27:39.446Z,515.00
2023-05-19T04:27:44.668Z,517.00
2023-05-19T04:27:49.876Z,521.00
2023-05-19T04:27:55.175Z,524.00
2023-05-19T04:28:31.262Z,533.00
2023-05-19T04:28:36.461Z,533.00
2023-05-19T04:28:41.660Z,536.00
2023-05-19T04:28:46.872Z,540.00
2023-05-19T04:28:52.073Z,539.00
2023-05-19T04:28:57.278Z,539.00
2023-05-19T04:29:33.361Z,555.00
2023-05-19T04:29:38.577Z,553.00
2023-05-19T04:29:43.801Z,558.00
2023-05-19T04:29:49.021Z,558.00
2023-05-19T04:29:54.215Z,562.00
2023-05-19T04:29:59.425Z,565.00
2023-05-19T04:30:35.524Z,577.00
2023-05-19T04:30:40.729Z,576.00
2023-05-19T04:30:45.951Z,580.00
2023-05-19T04:30:51.192Z,582.00
2023-05-19T04:30:56.381Z,584.00
2023-05-19T04:31:01.577Z,582.00
2023-05-19T04:31:37.739Z,600.00
2023-05-19T04:31:43.056Z,601.00
2023-05-19T04:31:48.262Z,603.00
2023-05-19T04:31:53.466Z,603.00
2023-05-19T04:31:58.675Z,606.00
2023-05-19T04:32:03.882Z,607.00
2023-05-19T04:32:39.987Z,621.00
2023-05-19T04:32:45.278Z,621.00
2023-05-19T04:32:50.473Z,626.00
2023-05-19T04:32:55.692Z,629.00
2023-05-19T04:33:00.927Z,629.00
2023-05-19T04:33:06.201Z,630.00
2023-05-19T04:33:42.260Z,641.00
2023-05-19T04:33:47.465Z,646.00
2023-05-19T04:33:52.660Z,649.00
2023-05-19T04:33:57.860Z,652.00
2023-05-19T04:34:03.084Z,650.00
2023-05-19T04:34:08.266Z,650.00
2023-05-19T04:34:44.245Z,664.00
2023-05-19T04:34:49.447Z,665.00
2023-05-19T04:34:54.658Z,673.00
2023-05-19T04:34:59.869Z,671.00
2023-05-19T04:35:05.074Z,670.00
2023-05-19T04:35:10.396Z,671.00
2023-05-19T04:35:46.375Z,689.00
2023-05-19T04:35:51.587Z,691.00
2023-05-19T04:35:56.777Z,696.00
2023-05-19T04:36:01.994Z,695.00
2023-05-19T04:36:07.216Z,701.00
2023-05-19T04:36:12.433Z,696.00
2023-05-19T04:36:49.902Z,710.00
2023-05-19T04:36:56.868Z,716.00
2023-05-19T04:37:02.065Z,717.00
2023-05-19T04:37:07.287Z,715.00
2023-05-19T04:37:12.505Z,720.00
2023-05-19T04:37:17.688Z,723.00
2023-05-19T04:37:48.600Z,737.00
2023-05-19T04:37:58.923Z,739.00
2023-05-19T04:38:04.141Z,743.00
2023-05-19T04:38:09.334Z,745.00
2023-05-19T04:38:14.548Z,747.00
2023-05-19T04:38:19.753Z,750.00
2023-05-19T04:38:50.612Z,765.00
2023-05-19T04:39:00.962Z,770.00
2023-05-19T04:39:06.180Z,773.00
2023-05-19T04:39:11.395Z,773.00
2023-05-19T04:39:16.587Z,775.00
2023-05-19T04:39:21.769Z,777.00
2023-05-19T04:39:52.707Z,790.00
2023-05-19T04:40:03.064Z,796.00
2023-05-19T04:40:08.251Z,800.00
2023-05-19T04:40:13.464Z,800.00
2023-05-19T04:40:18.650Z,807.00
2023-05-19T04:40:23.898Z,806.00
2023-05-19T04:40:54.715Z,820.00
2023-05-19T04:41:05.059Z,825.00
2023-05-19T04:41:10.276Z,832.00
2023-05-19T04:41:15.466Z,829.00
2023-05-19T04:41:20.683Z,835.00
2023-05-19T04:41:25.909Z,835.00
2023-05-19T04:41:56.874Z,858.00
2023-05-19T04:42:07.296Z,853.00
2023-05-19T04:42:12.500Z,858.00
2023-05-19T04:42:17.717Z,861.00
2023-05-19T04:42:22.969Z,863.00
2023-05-19T04:42:28.174Z,862.00
2023-05-19T04:42:59.081Z,877.00
2023-05-19T04:43:09.417Z,879.00
2023-05-19T04:43:14.622Z,887.00
2023-05-19T04:43:19.802Z,883.00
2023-05-19T04:43:25.001Z,885.00
2023-05-19T04:43:30.208Z,890.00
2023-05-19T04:44:01.241Z,898.00
2023-05-19T04:44:11.581Z,907.00
2023-05-19T04:44:16.772Z,903.00
2023-05-19T04:44:21.976Z,907.00
2023-05-19T04:44:27.198Z,904.00
2023-05-19T04:44:32.379Z,908.00
2023-05-19T04:45:03.259Z,921.00
2023-05-19T04:45:13.597Z,923.00
2023-05-19T04:45:18.814Z,923.00
2023-05-19T04:45:23.999Z,926.00
2023-05-19T04:45:29.217Z,928.00
2023-05-19T04:45:34.427Z,933.00
2023-05-19T04:46:05.332Z,939.00
2023-05-19T04:46:15.705Z,937.00
2023-05-19T04:46:20.891Z,943.00
2023-05-19T04:46:26.148Z,944.00
2023-05-19T04:46:31.372Z,947.00
2023-05-19T04:46:36.594Z,945.00
2023-05-19T04:47:07.616Z,955.00
2023-05-19T04:47:17.982Z,953.00
2023-05-19T04:47:23.206Z,953.00
2023-05-19T04:47:28.444Z,954.00
2023-05-19T04:47:33.667Z,956.00
2023-05-19T04:47:38.907Z,957.00
2023-05-19T04:48:09.824Z,963.00
2023-05-19T04:48:20.171Z,965.00
2023-05-19T04:48:25.355Z,967.00
2023-05-19T04:48:30.562Z,964.00
2023-05-19T04:48:35.775Z,963.00
2023-05-19T04:48:40.968Z,965.00
2023-05-19T04:49:11.907Z,966.00
2023-05-19T04:49:22.225Z,968.00
2023-05-19T04:49:27.441Z,976.00
2023-05-19T04:49:32.645Z,969.00
2023-05-19T04:49:37.855Z,973.00
2023-05-19T04:49:43.098Z,972.00
2023-05-19T04:50:13.923Z,979.00
2023-05-19T04:50:24.249Z,979.00
2023-05-19T04:50:29.526Z,977.00
2023-05-19T04:50:35.004Z,981.00
2023-05-19T04:50:40.307Z,979.00
2023-05-19T04:50:45.508Z,979.00
2023-05-19T04:51:16.515Z,988.00
2023-05-19T04:51:26.876Z,991.00
2023-05-19T04:51:32.085Z,992.00
2023-05-19T04:51:37.292Z,994.00
2023-05-19T04:51:42.497Z,992.00
2023-05-19T04:51:47.707Z,998.00
2023-05-19T04:52:18.577Z,1001.00
2023-05-19T04:52:28.912Z,1002.00
2023-05-19T04:52:34.127Z,1004.00
2023-05-19T04:52:39.309Z,1000.00
2023-05-19T04:52:44.514Z,1005.00
2023-05-19T04:52:49.725Z,1004.00
2023-05-19T04:53:20.567Z,1004.00
2023-05-19T04:53:30.924Z,1005.00
2023-05-19T04:53:36.149Z,1009.00
2023-05-19T04:53:41.365Z,1010.00
2023-05-19T04:53:46.542Z,1013.00
2023-05-19T04:53:51.734Z,1012.00
2023-05-19T04:54:22.611Z,1018.00
2023-05-19T04:54:32.969Z,1018.00
2023-05-19T04:54:38.187Z,1018.00
2023-05-19T04:54:43.393Z,1013.00
2023-05-19T04:54:48.600Z,1016.00
2023-05-19T04:54:53.798Z,1028.00
2023-05-19T04:55:24.729Z,1029.00
2023-05-19T04:55:35.045Z,1030.00
2023-05-19T04:55:40.261Z,1029.00
2023-05-19T04:55:45.453Z,1032.00
2023-05-19T04:55:50.629Z,1030.00
2023-05-19T04:55:55.811Z,1030.00
2023-05-19T04:56:26.718Z,1033.00
2023-05-19T04:56:37.065Z,1035.00
2023-05-19T04:56:42.261Z,1034.00
2023-05-19T04:56:47.483Z,1036.00
2023-05-19T04:56:52.711Z,1036.00
2023-05-19T04:56:57.917Z,1036.00
2023-05-19T04:57:28.830Z,1037.00
2023-05-19T04:57:39.199Z,1038.00
2023-05-19T04:57:44.407Z,1039.00
2023-05-19T04:57:49.585Z,1039.00
2023-05-19T04:57:54.789Z,1038.00
2023-05-19T04:57:59.993Z,1039.00
2023-05-19T04:58:30.860Z,1039.00
2023-05-19T04:58:41.960Z,1041.00
2023-05-19T04:58:47.219Z,1041.00
2023-05-19T04:58:52.419Z,1043.00
2023-05-19T04:58:57.630Z,1044.00
2023-05-19T04:59:02.831Z,1045.00
2023-05-19T04:59:33.684Z,1043.00
2023-05-19T04:59:44.053Z,1044.00
2023-05-19T04:59:49.239Z,1048.00
2023-05-19T04:59:54.441Z,1043.00
2023-05-19T04:59:59.644Z,1041.00
2023-05-19T05:00:04.900Z,1044.00
2023-05-19T05:00:35.887Z,1048.00
2023-05-19T05:00:46.294Z,1051.00
2023-05-19T05:00:51.491Z,1054.00
2023-05-19T05:00:56.874Z,1051.00
2023-05-19T05:01:02.119Z,1054.00
2023-05-19T05:01:07.330Z,1053.00
2023-05-19T05:01:38.335Z,1054.00
2023-05-19T05:01:48.703Z,1054.00
2023-05-19T05:01:53.921Z,1057.00
2023-05-19T05:01:59.198Z,1054.00
2023-05-19T05:02:04.405Z,1054.00
2023-05-19T05:02:09.655Z,1058.00
2023-05-19T05:02:40.532Z,1064.00
2023-05-19T05:02:50.962Z,1062.00
2023-05-19T05:02:56.345Z,1061.00
2023-05-19T05:03:01.685Z,1062.00
2023-05-19T05:03:07.032Z,1061.00
2023-05-19T05:03:12.414Z,1063.00
2023-05-19T05:03:43.386Z,1066.00
2023-05-19T05:03:53.882Z,1066.00
2023-05-19T05:03:59.310Z,1065.00
2023-05-19T05:04:04.745Z,1069.00
2023-05-19T05:04:09.984Z,1073.00
2023-05-19T05:04:15.270Z,1071.00
2023-05-19T05:04:46.107Z,1074.00
2023-05-19T05:04:56.437Z,1080.00
2023-05-19T05:05:01.686Z,1078.00
2023-05-19T05:05:06.907Z,1080.00
2023-05-19T05:05:12.137Z,1078.00
2023-05-19T05:05:17.373Z,1087.00
2023-05-19T05:05:48.197Z,1090.00
2023-05-19T05:05:58.571Z,1093.00
2023-05-19T05:06:03.769Z,1094.00
2023-05-19T05:06:08.972Z,1097.00
2023-05-19T05:06:14.199Z,1098.00
2023-05-19T05:06:19.408Z,1097.00
2023-05-19T05:06:50.347Z,1109.00
2023-05-19T05:07:00.700Z,1113.00
2023-05-19T05:07:05.905Z,1114.00
2023-05-19T05:07:11.138Z,1118.00
2023-05-19T05:07:16.346Z,1114.00
2023-05-19T05:07:21.547Z,1114.00
2023-05-19T05:07:52.426Z,1127.00
2023-05-19T05:08:02.778Z,1137.00
2023-05-19T05:08:08.004Z,1134.00
2023-05-19T05:08:13.230Z,1136.00
2023-05-19T05:08:18.436Z,1145.00
2023-05-19T05:08:23.648Z,1144.00
2023-05-19T05:08:54.522Z,1150.00
2023-05-19T05:09:04.990Z,1157.00
2023-05-19T05:09:10.164Z,1155.00
2023-05-19T05:09:15.367Z,1162.00
2023-05-19T05:09:20.584Z,1165.00
2023-05-19T05:09:25.778Z,1163.00
2023-05-19T05:09:56.632Z,1180.00
2023-05-19T05:10:06.991Z,1182.00
2023-05-19T05:10:12.218Z,1185.00
2023-05-19T05:10:17.418Z,1185.00
2023-05-19T05:10:22.622Z,1189.00
2023-05-19T05:10:27.838Z,1189.00
2023-05-19T05:10:58.701Z,1207.00
2023-05-19T05:11:09.058Z,1213.00
2023-05-19T05:11:14.237Z,1213.00
2023-05-19T05:11:19.447Z,1217.00
2023-05-19T05:11:24.775Z,1222.00
2023-05-19T05:11:29.995Z,1222.00
2023-05-19T05:12:00.929Z,1239.00
2023-05-19T05:12:11.238Z,1245.00
2023-05-19T05:12:16.445Z,1251.00
2023-05-19T05:12:21.686Z,1252.00
2023-05-19T05:12:26.877Z,1254.00
2023-05-19T05:12:32.091Z,1259.00
2023-05-19T05:13:03.036Z,1279.00
2023-05-19T05:13:13.350Z,1285.00
2023-05-19T05:13:18.551Z,1284.00
2023-05-19T05:13:23.757Z,1286.00
2023-05-19T05:13:28.953Z,1294.00
2023-05-19T05:13:34.155Z,1292.00
2023-05-19T05:14:05.126Z,1311.00
2023-05-19T05:14:15.492Z,1316.00
2023-05-19T05:14:20.678Z,1319.00
2023-05-19T05:14:25.869Z,1323.00
2023-05-19T05:14:31.071Z,1321.00
2023-05-19T05:14:36.281Z,1324.00
2023-05-19T05:15:07.142Z,1307.00
2023-05-19T05:15:17.459Z,1316.00
2023-05-19T05:15:22.637Z,1311.00
2023-05-19T05:15:27.834Z,1313.00
2023-05-19T05:15:33.017Z,1321.00
2023-05-19T05:15:38.241Z,1323.00
2023-05-19T05:16:09.170Z,1339.00
2023-05-19T05:16:19.522Z,1349.00
2023-05-19T05:16:24.737Z,1355.00
2023-05-19T05:16:29.975Z,1356.00
2023-05-19T05:16:35.320Z,1362.00
2023-05-19T05:16:40.519Z,1367.00
2023-05-19T05:17:11.420Z,1387.00
2023-05-19T05:17:21.759Z,1400.00
2023-05-19T05:17:26.973Z,1399.00
2023-05-19T05:17:32.188Z,1403.00
2023-05-19T05:17:37.391Z,1404.00
2023-05-19T05:17:42.612Z,1411.00
2023-05-19T05:18:13.467Z,1438.00
2023-05-19T05:18:23.819Z,1447.00
2023-05-19T05:18:29.025Z,1448.00
2023-05-19T05:18:34.243Z,1460.00
2023-05-19T05:18:39.676Z,1460.00
2023-05-19T05:18:45.601Z,1463.00
2023-05-19T05:19:16.481Z,1499.00
2023-05-19T05:19:26.873Z,1513.00
2023-05-19T05:19:32.116Z,1515.00
2023-05-19T05:19:37.308Z,1524.00
2023-05-19T05:19:42.515Z,1522.00
2023-05-19T05:19:47.733Z,1535.00
2023-05-19T05:20:18.664Z,1566.00
2023-05-19T05:20:29.016Z,1575.00
2023-05-19T05:20:34.427Z,1579.00
2023-05-19T05:20:39.694Z,1587.00
2023-05-19T05:20:44.906Z,1593.00
2023-05-19T05:20:50.123Z,1596.00
2023-05-19T05:21:21.017Z,1627.00
2023-05-19T05:21:31.338Z,1640.00
2023-05-19T05:21:36.558Z,1645.00
2023-05-19T05:21:41.776Z,1647.00
2023-05-19T05:21:46.931Z,1652.00
2023-05-19T05:21:52.301Z,1658.00
2023-05-19T05:22:23.260Z,1695.00
2023-05-19T05:22:33.605Z,1696.00
2023-05-19T05:22:38.827Z,1707.00
2023-05-19T05:22:44.005Z,1705.00
2023-05-19T05:22:49.195Z,1717.00
2023-05-19T05:22:54.375Z,1722.00
2023-05-19T05:23:25.318Z,1764.00
2023-05-19T05:23:35.616Z,1785.00
2023-05-19T05:23:40.820Z,1785.00
2023-05-19T05:23:46.063Z,1794.00
2023-05-19T05:23:51.248Z,1805.00
2023-05-19T05:23:56.444Z,1810.00
2023-05-19T05:24:27.343Z,1847.00
2023-05-19T05:24:37.707Z,1865.00
2023-05-19T05:24:42.885Z,1868.00
2023-05-19T05:24:48.158Z,1882.00
2023-05-19T05:24:53.345Z,1884.00
2023-05-19T05:24:58.555Z,1896.00
2023-05-19T05:25:29.435Z,1976.00
2023-05-19T05:25:39.807Z,2024.00
2023-05-19T05:25:45.001Z,2033.00
2023-05-19T05:25:50.207Z,2049.00
2023-05-19T05:25:55.435Z,2056.00
2023-05-19T05:26:00.662Z,2075.00
2023-05-19T05:26:31.590Z,2198.00
2023-05-19T05:26:41.956Z,2235.00
2023-05-19T05:26:47.137Z,2251.00
2023-05-19T05:26:52.349Z,2273.00
2023-05-19T05:26:57.533Z,2307.00
2023-05-19T05:27:02.735Z,2360.00
2023-05-19T05:27:33.642Z,2497.00
2023-05-19T05:27:43.976Z,2518.00
2023-05-19T05:27:49.179Z,2541.00
2023-05-19T05:27:54.376Z,2551.00
2023-05-19T05:27:59.573Z,2593.00
2023-05-19T05:28:04.785Z,2623.00
2023-05-19T05:28:35.722Z,2957.00
2023-05-19T05:28:46.073Z,3128.00
2023-05-19T05:28:51.260Z,3206.00
2023-05-19T05:28:56.463Z,3285.00
2023-05-19T05:29:01.681Z,3395.00
2023-05-19T05:29:06.882Z,3469.00
2023-05-19T05:29:37.805Z,3885.00
2023-05-19T05:29:48.186Z,3984.00
2023-05-19T05:29:53.380Z,3979.00
2023-05-19T05:29:59.284Z,4001.00
2023-05-19T05:30:04.548Z,3970.00
2023-05-19T05:30:09.733Z,4014.00
2023-05-19T05:30:40.612Z,4162.00
2023-05-19T05:30:50.947Z,4114.00
2023-05-19T05:30:56.157Z,4136.00
2023-05-19T05:31:01.375Z,4186.00
2023-05-19T05:31:06.591Z,4268.00
2023-05-19T05:31:11.788Z,4314.00
2023-05-19T05:31:42.687Z,4219.00
2023-05-19T05:31:53.002Z,4268.00
2023-05-19T05:31:58.267Z,4247.00
2023-05-19T05:32:03.513Z,4241.00
2023-05-19T05:32:08.780Z,4238.00
2023-05-19T05:32:14.018Z,4211.00
2023-05-19T05:32:44.974Z,4434.00
2023-05-19T05:32:55.448Z,4404.00
2023-05-19T05:33:00.751Z,4424.00
2023-05-19T05:33:06.069Z,4389.00
2023-05-19T05:33:11.393Z,4341.00
2023-05-19T05:33:16.695Z,4249.00
2023-05-19T05:33:47.777Z,4108.00
2023-05-19T05:33:58.118Z,4276.00
2023-05-19T05:34:03.310Z,4341.00
2023-05-19T05:34:08.529Z,4386.00
2023-05-19T05:34:13.736Z,4437.00
2023-05-19T05:34:18.960Z,4461.00
2023-05-19T05:34:49.836Z,4684.00
2023-05-19T05:35:00.211Z,4794.00
2023-05-19T05:35:05.409Z,4817.00
2023-05-19T05:35:10.631Z,4893.00
2023-05-19T05:35:15.837Z,5002.00
2023-05-19T05:35:21.033Z,5099.00
2023-05-19T05:35:51.918Z,5031.00
2023-05-19T05:36:02.295Z,5215.00
2023-05-19T05:36:07.498Z,5223.00
2023-05-19T05:36:12.699Z,5237.00
2023-05-19T05:36:17.917Z,5271.00
2023-05-19T05:36:23.120Z,5287.00
2023-05-19T05:36:53.954Z,4905.00
2023-05-19T05:37:04.273Z,4452.00
2023-05-19T05:37:09.467Z,4343.00
2023-05-19T05:37:15.437Z,4286.00
2023-05-19T05:37:20.669Z,4158.00
2023-05-19T05:37:25.861Z,3985.00
2023-05-19T05:37:56.809Z,3527.00
2023-05-19T05:38:07.160Z,3547.00
2023-05-19T05:38:12.386Z,3531.00
2023-05-19T05:38:17.586Z,3496.00
2023-05-19T05:38:22.808Z,3409.00
2023-05-19T05:38:28.011Z,3362.00
2023-05-19T05:38:58.840Z,3336.00
2023-05-19T05:39:09.197Z,3204.00
2023-05-19T05:39:14.408Z,3156.00
2023-05-19T05:39:19.621Z,3155.00
2023-05-19T05:39:24.824Z,3129.00
2023-05-19T05:39:30.029Z,3121.00
2023-05-19T05:40:00.958Z,3091.00
2023-05-19T05:40:11.300Z,3147.00
2023-05-19T05:40:16.500Z,3148.00
2023-05-19T05:40:21.716Z,3151.00
2023-05-19T05:40:26.937Z,3145.00
2023-05-19T05:40:32.146Z,3149.00
2023-05-19T05:41:02.996Z,3438.00
2023-05-19T05:41:13.365Z,3588.00
2023-05-19T05:41:18.574Z,3657.00
2023-05-19T05:41:23.803Z,3687.00
2023-05-19T05:41:29.017Z,3723.00
2023-05-19T05:41:34.214Z,3700.00
2023-05-19T05:42:05.206Z,4132.00
2023-05-19T05:42:15.491Z,4119.00
2023-05-19T05:42:20.685Z,4041.00
2023-05-19T05:42:27.596Z,4027.00
2023-05-19T05:42:34.097Z,3966.00
2023-05-19T05:42:39.289Z,4060.00
2023-05-19T05:43:10.190Z,3992.00
2023-05-19T05:43:20.550Z,4068.00
2023-05-19T05:43:25.752Z,4104.00
2023-05-19T05:43:30.940Z,4120.00
2023-05-19T05:43:36.116Z,4120.00
2023-05-19T05:43:41.336Z,4119.00
2023-05-19T05:44:12.204Z,4492.00
2023-05-19T05:44:22.533Z,4598.00
2023-05-19T05:44:27.717Z,4560.00
2023-05-19T05:44:32.900Z,4452.00
2023-05-19T05:44:38.093Z,4370.00
2023-05-19T05:44:43.292Z,4359.00
2023-05-19T05:45:14.205Z,4113.00
2023-05-19T05:45:24.544Z,4017.00
2023-05-19T05:45:29.848Z,4082.00
2023-05-19T05:45:35.152Z,4108.00
2023-05-19T05:45:40.387Z,4135.00
2023-05-19T05:45:45.579Z,4196.00
2023-05-19T05:46:16.534Z,4173.00
2023-05-19T05:46:26.962Z,4298.00
2023-05-19T05:46:32.372Z,4385.00
2023-05-19T05:46:37.672Z,4515.00
2023-05-19T05:46:42.875Z,4591.00
2023-05-19T05:46:48.068Z,4682.00
2023-05-19T05:47:18.966Z,5344.00
2023-05-19T05:47:29.339Z,5557.00
2023-05-19T05:47:34.533Z,5619.00
2023-05-19T05:47:39.832Z,5624.00
2023-05-19T05:47:45.032Z,5676.00
2023-05-19T05:47:50.258Z,5693.00
2023-05-19T05:48:21.229Z,6023.00
2023-05-19T05:48:31.596Z,6448.00
2023-05-19T05:48:36.819Z,6553.00
2023-05-19T05:48:42.116Z,6464.00
2023-05-19T05:48:47.305Z,6431.00
2023-05-19T05:48:52.506Z,6329.00
2023-05-19T05:49:23.378Z,6102.00
2023-05-19T05:49:33.712Z,5977.00
2023-05-19T05:49:38.903Z,5983.00
2023-05-19T05:49:44.110Z,5959.00
2023-05-19T05:49:49.924Z,5899.00
2023-05-19T05:49:56.742Z,5809.00
2023-05-19T05:50:27.645Z,6098.00
2023-05-19T05:50:37.947Z,6100.00
2023-05-19T05:50:43.151Z,6055.00
2023-05-19T05:50:48.361Z,5770.00
2023-05-19T05:50:53.579Z,5392.00
2023-05-19T05:50:58.809Z,5111.00
2023-05-19T05:51:29.725Z,6062.00
2023-05-19T05:51:40.705Z,6053.00
2023-05-19T05:52:01.516Z,6153.00
2023-05-19T05:53:06.019Z,6146.00
2023-05-19T05:53:11.222Z,5904.00
2023-05-19T05:53:16.467Z,6103.00
2023-05-19T05:53:21.694Z,6286.00
2023-05-19T05:53:26.908Z,6435.00
2023-05-19T05:53:32.107Z,6522.00
2023-05-19T05:54:08.076Z,7196.00
2023-05-19T05:54:13.287Z,7217.00
2023-05-19T05:54:18.489Z,7164.00
2023-05-19T05:54:23.695Z,7142.00
2023-05-19T05:54:28.899Z,7176.00
2023-05-19T05:54:34.123Z,7221.00
2023-05-19T05:55:10.207Z,7226.00
2023-05-19T05:55:15.407Z,7147.00
2023-05-19T05:55:20.625Z,7143.00
2023-05-19T05:55:25.846Z,7153.00
2023-05-19T05:55:31.453Z,7168.00
2023-05-19T05:55:36.841Z,7166.00
2023-05-19T05:56:12.856Z,7407.00
2023-05-19T05:56:18.073Z,7400.00
2023-05-19T05:56:23.280Z,7340.00
2023-05-19T05:56:28.494Z,7333.00
2023-05-19T05:56:33.720Z,7342.00
2023-05-19T05:56:38.928Z,7315.00
2023-05-19T05:57:14.898Z,7179.00
2023-05-19T05:57:20.093Z,7171.00
2023-05-19T05:57:25.285Z,7159.00
2023-05-19T05:57:30.499Z,7267.00
2023-05-19T05:57:35.723Z,7391.00
2023-05-19T05:57:40.941Z,7502.00
2023-05-19T05:58:17.086Z,7612.00
2023-05-19T05:58:22.296Z,7599.00
2023-05-19T05:58:27.489Z,7552.00
2023-05-19T05:58:32.697Z,7472.00
2023-05-19T05:58:37.954Z,7412.00
2023-05-19T05:58:43.159Z,7399.00
2023-05-19T05:59:19.133Z,7664.00
2023-05-19T05:59:24.341Z,7581.00
2023-05-19T05:59:29.554Z,7482.00
2023-05-19T05:59:34.785Z,7399.00
2023-05-19T05:59:39.969Z,7429.00
2023-05-19T05:59:45.182Z,7460.00
2023-05-19T06:00:21.273Z,7597.00
2023-05-19T06:00:26.471Z,7543.00
2023-05-19T06:00:32.132Z,7506.00
2023-05-19T06:00:37.575Z,7413.00
2023-05-19T06:00:42.787Z,7375.00
2023-05-19T06:00:47.986Z,7337.00
2023-05-19T06:01:24.098Z,7551.00
2023-05-19T06:01:29.321Z,7567.00
2023-05-19T06:01:35.562Z,7615.00
2023-05-19T06:01:40.887Z,7665.00
2023-05-19T06:01:46.105Z,7544.00
2023-05-19T06:01:51.295Z,7203.00
2023-05-19T06:02:27.330Z,5910.00
2023-05-19T06:02:32.660Z,5892.00
2023-05-19T06:02:38.077Z,5972.00
2023-05-19T06:02:43.422Z,6124.00
2023-05-19T06:02:48.707Z,6227.00
2023-05-19T06:02:54.140Z,6211.00
2023-05-19T06:03:30.305Z,5747.00
2023-05-19T06:03:35.504Z,5675.00
2023-05-19T06:03:40.745Z,5623.00
2023-05-19T06:03:46.005Z,5590.00
2023-05-19T06:03:51.284Z,5556.00
2023-05-19T06:03:56.476Z,5414.00
2023-05-19T06:04:32.467Z,5023.00
2023-05-19T06:04:37.724Z,5060.00
2023-05-19T06:04:42.916Z,5048.00
2023-05-19T06:04:48.115Z,5070.00
2023-05-19T06:04:53.308Z,5050.00
2023-05-19T06:04:58.560Z,5041.00
2023-05-19T06:05:34.592Z,4877.00
2023-05-19T06:05:39.813Z,4907.00
2023-05-19T06:05:45.029Z,4942.00
2023-05-19T06:05:50.249Z,5009.00
2023-05-19T06:05:55.494Z,5066.00
2023-05-19T06:06:00.912Z,5061.00
2023-05-19T06:06:36.987Z,5676.00
2023-05-19T06:06:42.198Z,5844.00
2023-05-19T06:06:47.400Z,6017.00
2023-05-19T06:06:52.598Z,6162.00
2023-05-19T06:06:57.771Z,6346.00
2023-05-19T06:07:02.981Z,6486.00
2023-05-19T06:07:38.934Z,7228.00
2023-05-19T06:07:44.136Z,7307.00
2023-05-19T06:07:49.339Z,7363.00
2023-05-19T06:07:54.512Z,7438.00
2023-05-19T06:07:59.728Z,7424.00
2023-05-19T06:08:04.936Z,7421.00